Time,TemperatureF,DewpointF,PressureIn,WindDirection,WindDirectionDegrees,WindSpeedMPH,WindSpeedGustMPH,Humidity,HourlyPrecipIn,Conditions,Clouds,dailyrainin,SoftwareType,DateUTC
2013-05-08 00:01:00,47.4,38.1,30.23,West,270,0.0,0.0,70,0.00,,,0.00,WUHU216HW,2013-05-08 04:01:00,
2013-05-08 00:07:00,47.1,37.8,30.24,West,270,0.0,0.0,70,0.00,,,0.00,WUHU216HW,2013-05-08 04:07:00,
2013-05-08 00:12:00,46.9,38.0,30.24,WSW,248,0.0,0.0,71,0.00,,,0.00,WUHU216HW,2013-05-08 04:12:00,
2013-05-08 00:17:00,46.5,38.0,30.24,WSW,248,0.0,0.0,72,0.00,,,0.00,WUHU216HW,2013-05-08 04:17:00,
2013-05-08 00:22:00,46.2,37.7,30.23,WSW,248,0.0,0.0,72,0.00,,,0.00,WUHU216HW,2013-05-08 04:22:00,
2013-05-08 00:27:00,46.2,38.0,30.23,WNW,293,0.0,0.0,73,0.00,,,0.00,WUHU216HW,2013-05-08 04:27:00,
2013-05-08 00:32:00,45.6,37.5,30.23,West,270,0.0,0.0,73,0.00,,,0.00,WUHU216HW,2013-05-08 04:32:00,
2013-05-08 00:37:00,45.6,37.5,30.23,WSW,248,0.0,0.0,73,0.00,,,0.00,WUHU216HW,2013-05-08 04:37:00,
2013-05-08 00:43:00,45.6,37.5,30.24,WNW,293,0.0,0.0,73,0.00,,,0.00,WUHU216HW,2013-05-08 04:43:00,
2013-05-08 00:48:00,45.3,37.1,30.23,West,270,0.0,0.0,73,0.00,,,0.00,WUHU216HW,2013-05-08 04:48:00,
2013-05-08 00:53:00,45.3,37.5,30.23,West,270,0.0,0.0,74,0.00,,,0.00,WUHU216HW,2013-05-08 04:53:00,
2013-05-08 00:58:00,45.1,37.3,30.23,WNW,293,0.0,0.0,74,0.00,,,0.00,WUHU216HW,2013-05-08 04:58:00,
2013-05-08 01:03:00,45.1,37.3,30.23,West,270,0.0,0.0,74,0.00,,,0.00,WUHU216HW,2013-05-08 05:03:00,
2013-05-08 01:08:00,44.9,37.4,30.23,West,270,0.0,0.0,75,0.00,,,0.00,WUHU216HW,2013-05-08 05:08:00,
2013-05-08 01:13:00,44.9,37.4,30.23,West,270,0.0,0.0,75,0.00,,,0.00,WUHU216HW,2013-05-08 05:13:00,
2013-05-08 01:18:00,44.7,37.9,30.23,West,270,0.0,0.0,77,0.00,,,0.00,WUHU216HW,2013-05-08 05:18:00,
2013-05-08 01:23:00,44.7,38.3,30.23,WNW,293,0.0,0.0,78,0.00,,,0.00,WUHU216HW,2013-05-08 05:23:00,
2013-05-08 01:28:00,44.7,38.6,30.23,West,270,0.0,0.0,79,0.00,,,0.00,WUHU216HW,2013-05-08 05:28:00,
2013-05-08 01:34:00,44.7,39.0,30.23,WNW,293,0.0,0.0,80,0.00,,,0.00,WUHU216HW,2013-05-08 05:34:00,
2013-05-08 01:39:00,44.7,39.3,30.23,West,270,0.0,0.0,81,0.00,,,0.00,WUHU216HW,2013-05-08 05:39:00,
2013-05-08 01:44:00,44.7,39.3,30.22,West,270,0.0,0.0,81,0.00,,,0.00,WUHU216HW,2013-05-08 05:44:00,
2013-05-08 01:49:00,44.7,39.6,30.23,West,270,0.0,0.0,82,0.00,,,0.00,WUHU216HW,2013-05-08 05:49:00,
2013-05-08 01:54:00,44.7,39.6,30.23,West,270,0.0,0.0,82,0.00,,,0.00,WUHU216HW,2013-05-08 05:54:00,
2013-05-08 01:59:00,44.7,39.9,30.22,West,270,0.0,0.0,83,0.00,,,0.00,WUHU216HW,2013-05-08 05:59:00,
2013-05-08 02:04:00,44.7,39.9,30.22,WSW,248,0.0,0.0,83,0.00,,,0.00,WUHU216HW,2013-05-08 06:04:00,
2013-05-08 02:09:00,44.7,40.2,30.22,West,270,0.0,0.0,84,0.00,,,0.00,WUHU216HW,2013-05-08 06:09:00,
2013-05-08 02:14:00,44.6,40.0,30.22,West,270,0.0,0.0,84,0.00,,,0.00,WUHU216HW,2013-05-08 06:14:00,
2013-05-08 02:20:00,44.6,40.0,30.22,West,270,0.0,0.0,84,0.00,,,0.00,WUHU216HW,2013-05-08 06:20:00,
2013-05-08 02:25:00,44.4,40.1,30.21,West,270,0.0,1.3,85,0.00,,,0.00,WUHU216HW,2013-05-08 06:25:00,
2013-05-08 02:30:00,44.4,40.1,30.21,West,270,0.0,1.3,85,0.00,,,0.00,WUHU216HW,2013-05-08 06:30:00,
2013-05-08 02:35:00,44.7,40.5,30.21,West,270,0.0,0.0,85,0.00,,,0.00,WUHU216HW,2013-05-08 06:35:00,
2013-05-08 02:40:00,44.7,40.2,30.21,West,270,0.0,0.0,84,0.00,,,0.00,WUHU216HW,2013-05-08 06:40:00,
2013-05-08 02:45:00,44.7,40.2,30.21,WNW,293,0.0,0.0,84,0.00,,,0.00,WUHU216HW,2013-05-08 06:45:00,
2013-05-08 02:50:00,44.7,40.2,30.21,WNW,293,0.0,0.0,84,0.00,,,0.00,WUHU216HW,2013-05-08 06:50:00,
2013-05-08 02:55:00,44.7,39.9,30.21,West,270,0.0,0.0,83,0.00,,,0.00,WUHU216HW,2013-05-08 06:55:00,
2013-05-08 03:00:00,44.7,39.9,30.21,West,270,0.0,0.0,83,0.00,,,0.00,WUHU216HW,2013-05-08 07:00:00,
2013-05-08 03:05:00,44.6,39.4,30.21,WSW,248,0.0,0.0,82,0.00,,,0.00,WUHU216HW,2013-05-08 07:05:00,
2013-05-08 03:10:00,44.4,39.2,30.21,West,270,0.0,0.0,82,0.00,,,0.00,WUHU216HW,2013-05-08 07:10:00,
2013-05-08 03:15:00,44.4,39.2,30.21,WSW,248,2.4,2.4,82,0.00,,,0.00,WUHU216HW,2013-05-08 07:15:00,
2013-05-08 03:20:00,44.4,39.2,30.21,West,270,0.0,2.4,82,0.00,,,0.00,WUHU216HW,2013-05-08 07:20:00,
2013-05-08 03:25:00,44.4,38.9,30.21,West,270,0.0,2.4,81,0.00,,,0.00,WUHU216HW,2013-05-08 07:25:00,
2013-05-08 03:30:00,44.4,38.9,30.21,West,270,0.0,0.0,81,0.00,,,0.00,WUHU216HW,2013-05-08 07:30:00,
2013-05-08 03:35:00,44.4,38.9,30.22,WSW,248,0.0,0.0,81,0.00,,,0.00,WUHU216HW,2013-05-08 07:35:00,
2013-05-08 03:40:00,44.2,38.7,30.22,WSW,248,0.0,0.6,81,0.00,,,0.00,WUHU216HW,2013-05-08 07:40:00,
2013-05-08 03:45:00,43.8,38.4,30.22,WNW,293,0.0,0.6,81,0.00,,,0.00,WUHU216HW,2013-05-08 07:45:00,
2013-05-08 03:50:00,43.7,38.2,30.21,West,270,0.0,0.0,81,0.00,,,0.00,WUHU216HW,2013-05-08 07:50:00,
2013-05-08 03:55:00,43.7,38.2,30.22,West,270,0.0,0.0,81,0.00,,,0.00,WUHU216HW,2013-05-08 07:55:00,
2013-05-08 04:00:00,43.7,38.2,30.22,WNW,293,0.0,0.0,81,0.00,,,0.00,WUHU216HW,2013-05-08 08:00:00,
2013-05-08 04:05:00,43.5,37.7,30.22,WNW,293,0.0,0.0,80,0.00,,,0.00,WUHU216HW,2013-05-08 08:05:00,
2013-05-08 04:10:00,43.5,37.7,30.22,WNW,293,0.0,0.0,80,0.00,,,0.00,WUHU216HW,2013-05-08 08:10:00,
2013-05-08 04:15:00,43.3,37.8,30.22,WNW,293,0.0,0.0,81,0.00,,,0.00,WUHU216HW,2013-05-08 08:15:00,
2013-05-08 04:19:00,43.1,37.7,30.22,West,270,0.0,0.0,81,0.00,,,0.00,WUHU216HW,2013-05-08 08:19:00,
2013-05-08 04:24:00,42.9,37.5,30.21,West,270,0.0,0.0,81,0.00,,,0.00,WUHU216HW,2013-05-08 08:24:00,
2013-05-08 04:29:00,42.9,37.5,30.22,West,270,0.0,0.0,81,0.00,,,0.00,WUHU216HW,2013-05-08 08:29:00,
2013-05-08 04:34:00,42.9,37.8,30.22,WNW,293,0.0,0.0,82,0.00,,,0.00,WUHU216HW,2013-05-08 08:34:00,
2013-05-08 04:39:00,42.9,37.5,30.22,West,270,0.0,0.0,81,0.00,,,0.00,WUHU216HW,2013-05-08 08:39:00,
2013-05-08 04:44:00,42.9,37.8,30.22,West,270,0.0,0.0,82,0.00,,,0.00,WUHU216HW,2013-05-08 08:44:00,
2013-05-08 04:49:00,42.9,37.8,30.22,WNW,293,0.0,0.0,82,0.00,,,0.00,WUHU216HW,2013-05-08 08:49:00,
2013-05-08 04:54:00,43.1,38.3,30.22,West,270,0.0,0.0,83,0.00,,,0.00,WUHU216HW,2013-05-08 08:54:00,
2013-05-08 04:59:00,43.3,38.4,30.22,West,270,0.0,0.0,83,0.00,,,0.00,WUHU216HW,2013-05-08 08:59:00,
2013-05-08 05:04:00,42.9,38.1,30.22,West,270,0.0,0.0,83,0.00,,,0.00,WUHU216HW,2013-05-08 09:04:00,
2013-05-08 05:10:00,42.6,37.7,30.22,WNW,293,0.0,0.0,83,0.00,,,0.00,WUHU216HW,2013-05-08 09:10:00,
2013-05-08 05:15:00,42.6,38.0,30.22,West,270,0.0,0.0,84,0.00,,,0.00,WUHU216HW,2013-05-08 09:15:00,
2013-05-08 05:20:00,42.8,38.2,30.22,WNW,293,0.0,0.0,84,0.00,,,0.00,WUHU216HW,2013-05-08 09:20:00,
2013-05-08 05:25:00,42.6,38.2,30.22,WNW,293,0.0,0.0,84,0.00,,,0.00,WUHU216HW,2013-05-08 09:25:00,
2013-05-08 05:30:00,42.6,38.0,30.22,WSW,248,0.0,0.0,84,0.00,,,0.00,WUHU216HW,2013-05-08 09:30:00,
2013-05-08 05:35:00,42.6,38.0,30.22,West,270,0.0,0.0,84,0.00,,,0.00,WUHU216HW,2013-05-08 09:35:00,
2013-05-08 05:40:00,42.4,38.2,30.22,West,270,0.0,0.0,85,0.00,,,0.00,WUHU216HW,2013-05-08 09:40:00,
2013-05-08 05:45:00,42.4,37.9,30.22,West,270,0.0,0.0,84,0.00,,,0.00,WUHU216HW,2013-05-08 09:45:00,
2013-05-08 05:50:00,42.4,38.2,30.22,WNW,293,0.0,0.0,85,0.00,,,0.00,WUHU216HW,2013-05-08 09:50:00,
2013-05-08 05:55:00,42.4,38.2,30.23,West,270,0.0,0.0,85,0.00,,,0.00,WUHU216HW,2013-05-08 09:55:00,
2013-05-08 06:00:00,42.2,38.0,30.23,West,270,0.0,0.0,85,0.00,,,0.00,WUHU216HW,2013-05-08 10:00:00,
2013-05-08 06:05:00,42.0,37.8,30.23,West,270,0.0,0.0,85,0.00,,,0.00,WUHU216HW,2013-05-08 10:05:00,
2013-05-08 06:10:00,42.0,37.8,30.23,WNW,293,0.0,0.0,85,0.00,,,0.00,WUHU216HW,2013-05-08 10:10:00,
2013-05-08 06:15:00,42.0,38.1,30.23,West,270,0.0,0.0,86,0.00,,,0.00,WUHU216HW,2013-05-08 10:15:00,
2013-05-08 06:20:00,42.0,38.1,30.22,West,270,0.0,0.0,86,0.00,,,0.00,WUHU216HW,2013-05-08 10:20:00,
2013-05-08 06:26:00,42.4,38.5,30.23,WNW,293,0.0,0.0,86,0.00,,,0.00,WUHU216HW,2013-05-08 10:26:00,
2013-05-08 06:31:00,42.4,38.5,30.22,West,270,0.0,0.0,86,0.00,,,0.00,WUHU216HW,2013-05-08 10:31:00,
2013-05-08 06:36:00,42.6,38.6,30.23,West,270,0.0,0.0,86,0.00,,,0.00,WUHU216HW,2013-05-08 10:36:00,
2013-05-08 06:41:00,43.1,39.2,30.22,WNW,293,0.0,0.0,86,0.00,,,0.00,WUHU216HW,2013-05-08 10:41:00,
2013-05-08 06:46:00,43.5,39.5,30.23,WNW,293,0.0,0.0,86,0.00,,,0.00,WUHU216HW,2013-05-08 10:46:00,
2013-05-08 06:51:00,44.0,39.8,30.23,NW,315,0.0,0.0,85,0.00,,,0.00,WUHU216HW,2013-05-08 10:51:00,
2013-05-08 06:56:00,44.4,40.1,30.23,WNW,293,0.0,0.0,85,0.00,,,0.00,WUHU216HW,2013-05-08 10:56:00,
2013-05-08 07:01:00,45.1,40.9,30.23,WNW,293,0.0,0.0,85,0.00,,,0.00,WUHU216HW,2013-05-08 11:01:00,
2013-05-08 07:06:00,46.2,41.3,30.23,WNW,293,0.0,0.0,83,0.00,,,0.00,WUHU216HW,2013-05-08 11:06:00,
2013-05-08 07:11:00,46.9,42.0,30.23,North,0,0.0,0.0,83,0.00,,,0.00,WUHU216HW,2013-05-08 11:11:00,
2013-05-08 07:16:00,47.8,42.5,30.23,North,0,0.0,0.0,82,0.00,,,0.00,WUHU216HW,2013-05-08 11:16:00,
2013-05-08 07:21:00,49.2,42.9,30.23,North,0,1.5,2.6,79,0.00,,,0.00,WUHU216HW,2013-05-08 11:21:00,
2013-05-08 07:26:00,50.1,42.8,30.23,North,0,3.1,3.1,76,0.00,,,0.00,WUHU216HW,2013-05-08 11:26:00,
2013-05-08 07:31:00,51.2,42.9,30.23,North,0,4.9,4.9,73,0.00,,,0.00,WUHU216HW,2013-05-08 11:31:00,
2013-05-08 07:36:00,52.5,43.7,30.23,North,0,2.4,4.9,72,0.00,,,0.00,WUHU216HW,2013-05-08 11:36:00,
2013-05-08 07:41:00,53.2,44.0,30.23,WNW,293,0.0,3.8,71,0.00,,,0.00,WUHU216HW,2013-05-08 11:41:00,
2013-05-08 07:46:00,53.7,44.9,30.23,NW,315,0.0,3.8,72,0.00,,,0.00,WUHU216HW,2013-05-08 11:46:00,
2013-05-08 07:51:00,54.5,44.9,30.23,North,0,0.0,0.0,70,0.00,,,0.00,WUHU216HW,2013-05-08 11:51:00,
2013-05-08 07:56:00,55.2,44.8,30.23,NNE,23,1.5,1.5,68,0.00,,,0.00,WUHU216HW,2013-05-08 11:56:00,
2013-05-08 08:02:00,55.5,44.7,30.23,NNE,23,3.5,3.5,67,0.00,,,0.00,WUHU216HW,2013-05-08 12:02:00,
2013-05-08 08:07:00,55.9,45.1,30.23,NNE,23,3.3,3.5,67,0.00,,,0.00,WUHU216HW,2013-05-08 12:07:00,
2013-05-08 08:12:00,56.4,45.6,30.23,NNE,23,4.0,4.0,67,0.00,,,0.00,WUHU216HW,2013-05-08 12:12:00,
2013-05-08 08:17:00,56.4,45.6,30.23,NNE,23,8.5,8.5,67,0.00,,,0.00,WUHU216HW,2013-05-08 12:17:00,
2013-05-08 08:22:00,56.3,45.0,30.23,NNE,23,7.3,8.5,66,0.00,,,0.00,WUHU216HW,2013-05-08 12:22:00,
2013-05-08 08:27:00,56.1,44.8,30.22,NNE,23,8.9,8.9,66,0.00,,,0.00,WUHU216HW,2013-05-08 12:27:00,
2013-05-08 08:32:00,56.1,44.4,30.23,NNE,23,9.3,9.3,65,0.00,,,0.00,WUHU216HW,2013-05-08 12:32:00,
2013-05-08 08:37:00,55.9,43.8,30.23,NNE,23,7.3,9.3,64,0.00,,,0.00,WUHU216HW,2013-05-08 12:37:00,
2013-05-08 08:42:00,55.9,44.2,30.24,North,0,5.1,9.3,65,0.00,,,0.00,WUHU216HW,2013-05-08 12:42:00,
2013-05-08 08:48:00,55.9,43.8,30.23,NNE,23,7.3,8.5,64,0.00,,,0.00,WUHU216HW,2013-05-08 12:48:00,
2013-05-08 08:53:00,55.9,44.2,30.23,NNE,23,4.6,7.8,65,0.00,,,0.00,WUHU216HW,2013-05-08 12:53:00,
2013-05-08 08:58:00,56.1,44.4,30.23,NNE,23,5.5,7.8,65,0.00,,,0.00,WUHU216HW,2013-05-08 12:58:00,
2013-05-08 09:03:00,56.3,43.8,30.23,NNE,23,4.6,6.0,63,0.00,,,0.00,WUHU216HW,2013-05-08 13:03:00,
2013-05-08 09:08:00,56.4,43.5,30.23,NNE,23,6.9,6.9,62,0.00,,,0.00,WUHU216HW,2013-05-08 13:08:00,
2013-05-08 09:13:00,56.4,43.1,30.23,NNE,23,5.1,6.9,61,0.00,,,0.00,WUHU216HW,2013-05-08 13:13:00,
2013-05-08 09:18:00,56.4,43.1,30.23,NNE,23,4.9,6.9,61,0.00,,,0.00,WUHU216HW,2013-05-08 13:18:00,
2013-05-08 09:23:00,57.0,44.1,30.23,NNE,23,4.4,6.4,62,0.00,,,0.00,WUHU216HW,2013-05-08 13:23:00,
2013-05-08 09:29:00,57.3,44.6,30.23,NNE,23,5.5,5.5,62,0.00,,,0.00,WUHU216HW,2013-05-08 13:29:00,
2013-05-08 09:34:00,57.9,44.9,30.23,NNE,23,6.7,6.7,62,0.00,,,0.00,WUHU216HW,2013-05-08 13:34:00,
2013-05-08 09:39:00,58.4,44.6,30.23,NNE,23,5.8,6.7,60,0.00,,,0.00,WUHU216HW,2013-05-08 13:39:00,
2013-05-08 09:44:00,59.1,45.3,30.23,NNE,23,6.0,6.7,60,0.00,,,0.00,WUHU216HW,2013-05-08 13:44:00,
2013-05-08 09:49:00,59.5,44.7,30.23,NNE,23,5.8,6.4,58,0.00,,,0.00,WUHU216HW,2013-05-08 13:49:00,
2013-05-08 09:54:00,60.0,44.7,30.23,NNE,23,4.2,6.2,57,0.00,,,0.00,WUHU216HW,2013-05-08 13:54:00,
2013-05-08 09:59:00,60.2,44.9,30.23,NNE,23,7.1,7.1,57,0.00,,,0.00,WUHU216HW,2013-05-08 13:59:00,
2013-05-08 10:04:00,60.2,44.9,30.22,NNE,23,6.7,7.1,57,0.00,,,0.00,WUHU216HW,2013-05-08 14:04:00,
2013-05-08 10:09:00,60.4,45.6,30.23,NNE,23,6.0,7.1,58,0.00,,,0.00,WUHU216HW,2013-05-08 14:09:00,
2013-05-08 10:15:00,60.6,44.8,30.23,NNE,23,7.8,7.8,56,0.00,,,0.00,WUHU216HW,2013-05-08 14:15:00,
2013-05-08 10:20:00,60.6,45.3,30.23,NNE,23,8.0,8.0,57,0.00,,,0.00,WUHU216HW,2013-05-08 14:20:00,
2013-05-08 10:25:00,60.6,43.3,30.22,NE,45,6.4,8.0,53,0.00,,,0.00,WUHU216HW,2013-05-08 14:25:00,
2013-05-08 10:30:00,60.9,44.6,30.23,NNE,23,7.8,7.8,55,0.00,,,0.00,WUHU216HW,2013-05-08 14:30:00,
2013-05-08 10:35:00,61.3,43.5,30.22,NNE,23,4.2,7.8,52,0.00,,,0.00,WUHU216HW,2013-05-08 14:35:00,
2013-05-08 10:40:00,62.2,43.8,30.23,NNE,23,5.5,6.9,51,0.00,,,0.00,WUHU216HW,2013-05-08 14:40:00,
2013-05-08 10:45:00,62.6,43.7,30.23,NNE,23,5.3,6.9,50,0.00,,,0.00,WUHU216HW,2013-05-08 14:45:00,
2013-05-08 10:50:00,62.7,43.8,30.23,NNE,23,6.0,7.1,50,0.00,,,0.00,WUHU216HW,2013-05-08 14:50:00,
2013-05-08 10:55:00,64.0,43.2,30.23,NE,45,4.4,7.1,47,0.00,,,0.00,WUHU216HW,2013-05-08 14:55:00,
2013-05-08 11:00:00,64.5,43.7,30.23,NNE,23,4.0,5.1,47,0.00,,,0.00,WUHU216HW,2013-05-08 15:00:00,
2013-05-08 11:05:00,64.2,43.4,30.23,NNE,23,5.1,5.1,47,0.00,,,0.00,WUHU216HW,2013-05-08 15:05:00,
2013-05-08 11:11:00,64.5,43.1,30.23,NNE,23,4.0,6.0,46,0.00,,,0.00,WUHU216HW,2013-05-08 15:11:00,
2013-05-08 11:16:00,65.3,43.8,30.22,NNE,23,6.0,6.4,46,0.00,,,0.00,WUHU216HW,2013-05-08 15:16:00,
2013-05-08 11:21:00,65.8,43.8,30.23,NNE,23,5.1,6.4,45,0.00,,,0.00,WUHU216HW,2013-05-08 15:21:00,
2013-05-08 11:26:00,66.0,43.9,30.22,NNE,23,5.5,5.8,45,0.00,,,0.00,WUHU216HW,2013-05-08 15:26:00,
2013-05-08 11:31:00,66.3,43.7,30.23,NNE,23,6.0,6.0,44,0.00,,,0.00,WUHU216HW,2013-05-08 15:31:00,
2013-05-08 11:36:00,66.3,43.7,30.23,NNE,23,6.2,6.2,44,0.00,,,0.00,WUHU216HW,2013-05-08 15:36:00,
2013-05-08 11:41:00,66.5,44.4,30.23,NNE,23,6.7,7.3,45,0.00,,,0.00,WUHU216HW,2013-05-08 15:41:00,
2013-05-08 11:46:00,67.2,45.1,30.23,NNE,23,5.3,7.3,45,0.00,,,0.00,WUHU216HW,2013-05-08 15:46:00,
2013-05-08 11:51:00,68.3,46.0,30.23,NE,45,4.4,5.8,45,0.00,,,0.00,WUHU216HW,2013-05-08 15:51:00,
2013-05-08 11:56:00,68.9,45.9,30.23,NNE,23,5.1,5.8,44,0.00,,,0.00,WUHU216HW,2013-05-08 15:56:00,
2013-05-08 12:01:00,69.2,45.7,30.23,NNE,23,3.8,5.8,43,0.00,,,0.00,WUHU216HW,2013-05-08 16:01:00,
2013-05-08 12:07:00,69.9,46.3,30.23,NNE,23,4.4,4.9,43,0.00,,,0.00,WUHU216HW,2013-05-08 16:07:00,
2013-05-08 12:12:00,70.5,46.8,30.23,NE,45,3.5,8.2,43,0.00,,,0.00,WUHU216HW,2013-05-08 16:12:00,
2013-05-08 12:17:00,70.3,44.9,30.23,ENE,68,4.2,8.2,40,0.00,,,0.00,WUHU216HW,2013-05-08 16:17:00,
2013-05-08 12:22:00,70.5,45.0,30.23,NE,45,4.4,4.4,40,0.00,,,0.00,WUHU216HW,2013-05-08 16:22:00,
2013-05-08 12:27:00,69.9,43.8,30.22,NE,45,4.2,5.8,39,0.00,,,0.00,WUHU216HW,2013-05-08 16:27:00,
2013-05-08 12:32:00,69.4,42.6,30.22,NE,45,5.5,5.8,38,0.00,,,0.00,WUHU216HW,2013-05-08 16:32:00,
2013-05-08 12:37:00,68.5,43.2,30.23,NNE,23,6.9,6.9,40,0.00,,,0.00,WUHU216HW,2013-05-08 16:37:00,
2013-05-08 12:43:00,68.0,42.0,30.22,NNE,23,5.8,6.9,39,0.00,,,0.00,WUHU216HW,2013-05-08 16:43:00,
2013-05-08 12:48:00,67.2,41.4,30.22,NNE,23,7.1,9.1,39,0.00,,,0.00,WUHU216HW,2013-05-08 16:48:00,
2013-05-08 12:53:00,66.3,42.5,30.22,NNE,23,7.6,9.1,42,0.00,,,0.00,WUHU216HW,2013-05-08 16:53:00,
2013-05-08 12:58:00,66.0,43.3,30.22,NNE,23,8.2,9.3,44,0.00,,,0.00,WUHU216HW,2013-05-08 16:58:00,
2013-05-08 13:03:00,65.3,42.7,30.22,North,0,0.0,9.3,44,0.00,,,0.00,WUHU216HW,2013-05-08 17:03:00,
2013-05-08 13:08:00,65.1,43.7,30.22,NE,45,8.0,9.1,46,0.00,,,0.00,WUHU216HW,2013-05-08 17:08:00,
2013-05-08 13:13:00,66.0,45.1,30.22,NE,45,8.0,9.1,47,0.00,,,0.00,WUHU216HW,2013-05-08 17:13:00,
2013-05-08 13:18:00,65.1,43.7,30.22,NNE,23,8.2,9.1,46,0.00,,,0.00,WUHU216HW,2013-05-08 17:18:00,
2013-05-08 13:23:00,64.7,45.6,30.22,NNE,23,8.7,9.1,50,0.00,,,0.00,WUHU216HW,2013-05-08 17:23:00,
2013-05-08 13:28:00,64.5,44.9,30.21,NNE,23,6.4,9.1,49,0.00,,,0.00,WUHU216HW,2013-05-08 17:28:00,
2013-05-08 13:33:00,65.4,45.8,30.22,NNE,23,7.8,9.1,49,0.00,,,0.00,WUHU216HW,2013-05-08 17:33:00,
2013-05-08 13:38:00,65.6,45.9,30.22,NNE,23,7.8,8.9,49,0.00,,,0.00,WUHU216HW,2013-05-08 17:38:00,
2013-05-08 13:43:00,65.6,45.3,30.22,NNE,23,9.1,9.1,48,0.00,,,0.00,WUHU216HW,2013-05-08 17:43:00,
2013-05-08 13:48:00,65.4,44.0,30.21,NNE,23,10.5,10.5,46,0.00,,,0.00,WUHU216HW,2013-05-08 17:48:00,
2013-05-08 13:53:00,65.3,44.4,30.21,NNE,23,8.2,10.5,47,0.00,,,0.00,WUHU216HW,2013-05-08 17:53:00,
2013-05-08 13:58:00,65.4,45.2,30.21,NNE,23,8.9,10.5,48,0.00,,,0.00,WUHU216HW,2013-05-08 17:58:00,
2013-05-08 14:03:00,66.0,45.1,30.21,NNE,23,7.6,10.5,47,0.00,,,0.00,WUHU216HW,2013-05-08 18:03:00,
2013-05-08 14:08:00,66.3,45.5,30.21,NNE,23,8.5,10.5,47,0.00,,,0.00,WUHU216HW,2013-05-08 18:08:00,
2013-05-08 14:13:00,66.7,45.8,30.21,NE,45,6.2,8.9,47,0.00,,,0.00,WUHU216HW,2013-05-08 18:13:00,
2013-05-08 14:18:00,66.5,45.0,30.21,NNE,23,7.6,9.3,46,0.00,,,0.00,WUHU216HW,2013-05-08 18:18:00,
2013-05-08 14:23:00,66.5,45.0,30.21,NNE,23,7.1,9.3,46,0.00,,,0.00,WUHU216HW,2013-05-08 18:23:00,
2013-05-08 14:28:00,66.7,44.0,30.21,NNE,23,7.6,7.6,44,0.00,,,0.00,WUHU216HW,2013-05-08 18:28:00,
2013-05-08 14:34:00,66.9,45.3,30.20,NNE,23,7.1,7.8,46,0.00,,,0.00,WUHU216HW,2013-05-08 18:34:00,
2013-05-08 14:39:00,67.4,45.2,30.20,NNE,23,6.0,7.8,45,0.00,,,0.00,WUHU216HW,2013-05-08 18:39:00,
2013-05-08 14:44:00,67.8,45.0,30.21,NNE,23,6.7,7.3,44,0.00,,,0.00,WUHU216HW,2013-05-08 18:44:00,
2013-05-08 14:49:00,68.0,44.5,30.20,NNE,23,6.2,7.3,43,0.00,,,0.00,WUHU216HW,2013-05-08 18:49:00,
2013-05-08 14:54:00,68.1,45.3,30.20,NE,45,5.5,6.7,44,0.00,,,0.00,WUHU216HW,2013-05-08 18:54:00,
2013-05-08 14:59:00,69.4,45.2,30.20,NNE,23,4.9,6.2,42,0.00,,,0.00,WUHU216HW,2013-05-08 18:59:00,
2013-05-08 15:04:00,69.0,44.9,30.20,NE,45,6.0,6.0,42,0.00,,,0.00,WUHU216HW,2013-05-08 19:04:00,
2013-05-08 15:09:00,69.4,47.0,30.20,NE,45,6.7,6.7,45,0.00,,,0.00,WUHU216HW,2013-05-08 19:09:00,
2013-05-08 15:14:00,69.4,45.2,30.20,NNE,23,5.5,6.7,42,0.00,,,0.00,WUHU216HW,2013-05-08 19:14:00,
2013-05-08 15:19:00,69.2,45.1,30.20,NE,45,5.8,5.8,42,0.00,,,0.00,WUHU216HW,2013-05-08 19:19:00,
2013-05-08 15:24:00,69.6,44.8,30.19,NNE,23,5.3,6.4,41,0.00,,,0.00,WUHU216HW,2013-05-08 19:24:00,
2013-05-08 15:29:00,70.7,44.4,30.19,NE,45,3.8,6.4,39,0.00,,,0.00,WUHU216HW,2013-05-08 19:29:00,
2013-05-08 15:34:00,71.4,44.4,30.19,NNE,23,5.3,6.0,38,0.00,,,0.00,WUHU216HW,2013-05-08 19:34:00,
2013-05-08 15:39:00,71.2,44.2,30.19,NE,45,6.4,6.4,38,0.00,,,0.00,WUHU216HW,2013-05-08 19:39:00,
2013-05-08 15:44:00,72.1,45.0,30.19,NE,45,4.2,6.4,38,0.00,,,0.00,WUHU216HW,2013-05-08 19:44:00,
2013-05-08 15:49:00,71.7,42.4,30.18,NNE,23,4.9,5.8,35,0.00,,,0.00,WUHU216HW,2013-05-08 19:49:00,
2013-05-08 15:54:00,71.2,43.5,30.18,NNE,23,4.4,5.3,37,0.00,,,0.00,WUHU216HW,2013-05-08 19:54:00,
2013-05-08 15:59:00,71.2,44.2,30.18,NE,45,7.1,7.1,38,0.00,,,0.00,WUHU216HW,2013-05-08 19:59:00,
2013-05-08 16:05:00,71.2,43.7,30.18,NE,45,5.8,7.1,38,0.00,,,0.00,WUHU216HW,2013-05-08 20:05:00,
2013-05-08 16:10:00,69.9,44.5,30.18,NE,45,5.3,7.1,40,0.00,,,0.00,WUHU216HW,2013-05-08 20:10:00,
2013-05-08 16:15:00,69.0,43.7,30.18,NNE,23,5.3,6.7,40,0.00,,,0.00,WUHU216HW,2013-05-08 20:15:00,
2013-05-08 16:20:00,68.5,43.2,30.18,NE,45,5.8,6.0,40,0.00,,,0.00,WUHU216HW,2013-05-08 20:20:00,
2013-05-08 16:25:00,68.1,43.5,30.18,NNE,23,7.3,7.3,41,0.00,,,0.00,WUHU216HW,2013-05-08 20:25:00,
2013-05-08 16:30:00,67.2,42.7,30.18,NNE,23,6.2,7.8,41,0.00,,,0.00,WUHU216HW,2013-05-08 20:30:00,
2013-05-08 16:35:00,66.5,42.1,30.18,NNE,23,8.9,8.9,42,0.00,,,0.00,WUHU216HW,2013-05-08 20:35:00,
2013-05-08 16:40:00,65.3,42.7,30.18,NNE,23,7.3,8.9,44,0.00,,,0.00,WUHU216HW,2013-05-08 20:40:00,
2013-05-08 16:45:00,64.7,41.6,30.18,NNE,23,6.4,9.1,43,0.00,,,0.00,WUHU216HW,2013-05-08 20:45:00,
2013-05-08 16:51:00,62.7,40.4,30.17,NNE,23,9.1,9.8,44,0.00,,,0.00,WUHU216HW,2013-05-08 20:51:00,
2013-05-08 16:56:00,61.1,41.8,30.17,NNE,23,10.5,10.5,49,0.00,,,0.00,WUHU216HW,2013-05-08 20:56:00,
2013-05-08 17:01:00,60.4,41.7,30.17,North,0,8.9,10.5,50,0.00,,,0.00,WUHU216HW,2013-05-08 21:01:00,
2013-05-08 17:06:00,59.5,41.4,30.17,NNE,23,8.7,9.3,51,0.00,,,0.00,WUHU216HW,2013-05-08 21:06:00,
2013-05-08 17:11:00,59.7,42.9,30.17,NNE,23,12.0,12.0,54,0.00,,,0.00,WUHU216HW,2013-05-08 21:11:00,
2013-05-08 17:16:00,59.7,42.0,30.17,NNE,23,8.5,12.0,52,0.00,,,0.00,WUHU216HW,2013-05-08 21:16:00,
2013-05-08 17:21:00,59.1,41.0,30.17,NNE,23,10.5,10.7,51,0.00,,,0.00,WUHU216HW,2013-05-08 21:21:00,
2013-05-08 17:26:00,58.2,40.2,30.17,NNE,23,9.6,10.7,51,0.00,,,0.00,WUHU216HW,2013-05-08 21:26:00,
2013-05-08 17:32:00,59.0,42.8,30.17,NNE,23,7.6,10.5,55,0.00,,,0.00,WUHU216HW,2013-05-08 21:32:00,
2013-05-08 17:37:00,60.8,42.1,30.17,NNE,23,5.3,7.6,49,0.00,,,0.00,WUHU216HW,2013-05-08 21:37:00,
2013-05-08 17:42:00,62.7,43.8,30.17,NNE,23,6.0,6.9,50,0.00,,,0.00,WUHU216HW,2013-05-08 21:42:00,
2013-05-08 17:47:00,63.3,43.1,30.17,NNE,23,9.1,9.1,48,0.00,,,0.00,WUHU216HW,2013-05-08 21:47:00,
2013-05-08 17:52:00,63.1,41.3,30.17,NE,45,4.2,9.1,45,0.00,,,0.00,WUHU216HW,2013-05-08 21:52:00,
2013-05-08 17:57:00,63.6,42.3,30.17,NNE,23,3.1,7.6,46,0.00,,,0.00,WUHU216HW,2013-05-08 21:57:00,
2013-05-08 18:02:00,63.5,42.7,30.16,NNE,23,2.2,7.1,47,0.00,,,0.00,WUHU216HW,2013-05-08 22:02:00,
2013-05-08 18:07:00,64.0,42.6,30.16,NNE,23,4.6,6.4,46,0.00,,,0.00,WUHU216HW,2013-05-08 22:07:00,
2013-05-08 18:12:00,63.6,41.2,30.16,NNE,23,4.6,8.0,44,0.00,,,0.00,WUHU216HW,2013-05-08 22:12:00,
2013-05-08 18:18:00,64.0,42.6,30.16,NNE,23,1.7,8.0,46,0.00,,,0.00,WUHU216HW,2013-05-08 22:18:00,
2013-05-08 18:23:00,64.5,42.0,30.16,NE,45,0.0,4.0,44,0.00,,,0.00,WUHU216HW,2013-05-08 22:23:00,
2013-05-08 18:28:00,64.9,42.9,30.16,NNE,23,3.8,4.0,45,0.00,,,0.00,WUHU216HW,2013-05-08 22:28:00,
2013-05-08 18:33:00,64.2,41.1,30.16,NNE,23,7.3,7.6,43,0.00,,,0.00,WUHU216HW,2013-05-08 22:33:00,
2013-05-08 18:38:00,63.1,40.7,30.16,NNE,23,6.9,7.6,44,0.00,,,0.00,WUHU216HW,2013-05-08 22:38:00,
2013-05-08 18:43:00,61.8,40.7,30.16,NNE,23,6.9,7.3,46,0.00,,,0.00,WUHU216HW,2013-05-08 22:43:00,
2013-05-08 18:48:00,60.8,41.5,30.17,NNE,23,3.8,7.3,49,0.00,,,0.00,WUHU216HW,2013-05-08 22:48:00,
2013-05-08 18:53:00,60.4,41.7,30.17,NE,45,5.8,6.7,50,0.00,,,0.00,WUHU216HW,2013-05-08 22:53:00,
2013-05-08 18:58:00,59.9,41.7,30.17,NNE,23,8.9,8.9,51,0.00,,,0.00,WUHU216HW,2013-05-08 22:58:00,
2013-05-08 19:03:00,58.8,40.2,30.16,North,0,6.7,8.9,50,0.00,,,0.00,WUHU216HW,2013-05-08 23:03:00,
2013-05-08 19:09:00,58.1,40.2,30.16,NNE,23,0.8,6.9,51,0.00,,,0.00,WUHU216HW,2013-05-08 23:09:00,
2013-05-08 19:14:00,57.9,38.3,30.16,NNE,23,3.3,5.8,48,0.00,,,0.00,WUHU216HW,2013-05-08 23:14:00,
2013-05-08 19:19:00,58.1,37.3,30.16,NNE,23,1.7,3.3,46,0.00,,,0.00,WUHU216HW,2013-05-08 23:19:00,
2013-05-08 19:24:00,58.2,38.0,30.16,NNE,23,0.0,3.3,47,0.00,,,0.00,WUHU216HW,2013-05-08 23:24:00,
2013-05-08 19:29:00,58.1,39.6,30.16,NNE,23,4.4,4.4,50,0.00,,,0.00,WUHU216HW,2013-05-08 23:29:00,
2013-05-08 19:34:00,57.9,37.7,30.16,North,0,3.1,4.4,47,0.00,,,0.00,WUHU216HW,2013-05-08 23:34:00,
2013-05-08 19:39:00,57.9,38.3,30.16,North,0,0.0,4.4,48,0.00,,,0.00,WUHU216HW,2013-05-08 23:39:00,
2013-05-08 19:44:00,57.7,38.7,30.15,North,0,3.1,3.1,49,0.00,,,0.00,WUHU216HW,2013-05-08 23:44:00,
2013-05-08 19:49:00,57.5,38.0,30.16,North,0,0.6,3.1,48,0.00,,,0.00,WUHU216HW,2013-05-08 23:49:00,
2013-05-08 19:54:00,57.3,39.0,30.16,North,0,0.0,3.1,50,0.00,,,0.00,WUHU216HW,2013-05-08 23:54:00,
2013-05-08 20:00:00,57.0,38.6,30.16,North,0,0.0,0.0,50,0.00,,,0.00,WUHU216HW,2013-05-09 00:00:00,
2013-05-08 20:05:00,56.4,38.5,30.15,West,270,0.0,0.0,51,0.00,,,0.00,WUHU216HW,2013-05-09 00:05:00,
2013-05-08 20:10:00,56.1,38.2,30.15,West,270,0.0,0.0,51,0.00,,,0.00,WUHU216HW,2013-05-09 00:10:00,
2013-05-08 20:15:00,55.7,38.3,30.15,West,270,0.0,0.0,52,0.00,,,0.00,WUHU216HW,2013-05-09 00:15:00,
2013-05-08 20:20:00,55.2,38.2,30.16,West,270,0.0,0.0,53,0.00,,,0.00,WUHU216HW,2013-05-09 00:20:00,
2013-05-08 20:25:00,55.0,38.1,30.15,West,270,0.0,0.0,53,0.00,,,0.00,WUHU216HW,2013-05-09 00:25:00,
2013-05-08 20:30:00,54.8,37.9,30.16,WNW,293,0.0,0.0,53,0.00,,,0.00,WUHU216HW,2013-05-09 00:30:00,
2013-05-08 20:35:00,54.3,38.4,30.16,WNW,293,0.0,0.0,55,0.00,,,0.00,WUHU216HW,2013-05-09 00:35:00,
2013-05-08 20:40:00,53.9,38.5,30.16,West,270,0.0,0.0,56,0.00,,,0.00,WUHU216HW,2013-05-09 00:40:00,
2013-05-08 20:45:00,53.7,38.3,30.15,WNW,293,0.0,0.0,56,0.00,,,0.00,WUHU216HW,2013-05-09 00:45:00,
2013-05-08 20:50:00,53.2,38.3,30.15,West,270,0.0,0.0,57,0.00,,,0.00,WUHU216HW,2013-05-09 00:50:00,
2013-05-08 20:55:00,52.8,37.5,30.16,WSW,248,0.0,0.0,56,0.00,,,0.00,WUHU216HW,2013-05-09 00:55:00,
2013-05-08 21:00:00,52.7,37.3,30.15,WSW,248,0.0,0.0,56,0.00,,,0.00,WUHU216HW,2013-05-09 01:00:00,
2013-05-08 21:05:00,52.3,37.0,30.15,West,270,0.0,0.0,56,0.00,,,0.00,WUHU216HW,2013-05-09 01:05:00,
2013-05-08 21:10:00,52.3,37.0,30.16,West,270,0.0,0.0,56,0.00,,,0.00,WUHU216HW,2013-05-09 01:10:00,
2013-05-08 21:16:00,52.1,36.3,30.16,West,270,0.0,0.0,55,0.00,,,0.00,WUHU216HW,2013-05-09 01:16:00,
2013-05-08 21:21:00,51.6,36.3,30.16,West,270,0.0,0.0,56,0.00,,,0.00,WUHU216HW,2013-05-09 01:21:00,
2013-05-08 21:26:00,51.4,36.6,30.15,WSW,248,0.0,0.0,57,0.00,,,0.00,WUHU216HW,2013-05-09 01:26:00,
2013-05-08 21:31:00,51.0,36.7,30.16,West,270,0.0,0.0,58,0.00,,,0.00,WUHU216HW,2013-05-09 01:31:00,
2013-05-08 21:36:00,51.0,36.7,30.16,West,270,0.0,0.0,58,0.00,,,0.00,WUHU216HW,2013-05-09 01:36:00,
2013-05-08 21:41:00,50.9,37.0,30.16,WNW,293,0.0,0.0,59,0.00,,,0.00,WUHU216HW,2013-05-09 01:41:00,
2013-05-08 21:46:00,50.5,37.1,30.16,West,270,0.0,0.0,60,0.00,,,0.00,WUHU216HW,2013-05-09 01:46:00,
2013-05-08 21:51:00,50.3,37.4,30.16,West,270,0.0,0.0,61,0.00,,,0.00,WUHU216HW,2013-05-09 01:51:00,
2013-05-08 21:56:00,50.3,37.4,30.16,WNW,293,0.0,0.0,61,0.00,,,0.00,WUHU216HW,2013-05-09 01:56:00,
2013-05-08 22:01:00,50.1,37.6,30.17,West,270,0.0,0.0,62,0.00,,,0.00,WUHU216HW,2013-05-09 02:01:00,
2013-05-08 22:06:00,50.1,37.6,30.16,WSW,248,0.0,0.0,62,0.00,,,0.00,WUHU216HW,2013-05-09 02:06:00,
2013-05-08 22:11:00,50.1,37.6,30.16,West,270,0.0,0.0,62,0.00,,,0.00,WUHU216HW,2013-05-09 02:11:00,
2013-05-08 22:16:00,50.3,38.1,30.16,WNW,293,0.0,0.0,63,0.00,,,0.00,WUHU216HW,2013-05-09 02:16:00,
2013-05-08 22:21:00,50.3,38.5,30.17,West,270,0.0,0.0,64,0.00,,,0.00,WUHU216HW,2013-05-09 02:21:00,
2013-05-08 22:26:00,50.1,38.8,30.16,West,270,0.0,0.0,65,0.00,,,0.00,WUHU216HW,2013-05-09 02:26:00,
2013-05-08 22:31:00,50.1,39.6,30.16,WNW,293,0.0,0.0,67,0.00,,,0.00,WUHU216HW,2013-05-09 02:31:00,
2013-05-08 22:36:00,50.0,39.8,30.16,WSW,248,0.0,0.0,68,0.00,,,0.00,WUHU216HW,2013-05-09 02:36:00,
2013-05-08 22:41:00,50.0,40.4,30.17,West,270,0.0,0.0,69,0.00,,,0.00,WUHU216HW,2013-05-09 02:41:00,
2013-05-08 22:46:00,50.1,40.4,30.17,West,270,0.0,0.0,69,0.00,,,0.00,WUHU216HW,2013-05-09 02:46:00,
2013-05-08 22:51:00,50.0,39.8,30.16,West,270,0.0,0.0,68,0.00,,,0.00,WUHU216HW,2013-05-09 02:51:00,
2013-05-08 22:56:00,50.0,39.8,30.16,WSW,248,0.0,0.0,68,0.00,,,0.00,WUHU216HW,2013-05-09 02:56:00,
2013-05-08 23:01:00,49.8,39.6,30.16,WNW,293,0.0,0.0,68,0.00,,,0.00,WUHU216HW,2013-05-09 03:01:00,
2013-05-08 23:07:00,49.6,39.8,30.16,West,270,0.0,0.0,69,0.00,,,0.00,WUHU216HW,2013-05-09 03:07:00,
2013-05-08 23:11:00,49.6,39.8,30.16,West,270,0.0,0.0,69,0.00,,,0.00,WUHU216HW,2013-05-09 03:11:00,
2013-05-08 23:16:00,49.2,39.9,30.16,West,270,0.0,0.0,70,0.00,,,0.00,WUHU216HW,2013-05-09 03:16:00,
2013-05-08 23:22:00,49.2,39.9,30.16,WNW,293,0.0,0.0,70,0.00,,,0.00,WUHU216HW,2013-05-09 03:22:00,
2013-05-08 23:27:00,49.6,39.8,30.16,WNW,293,0.0,0.0,69,0.00,,,0.00,WUHU216HW,2013-05-09 03:27:00,
2013-05-08 23:32:00,49.6,40.2,30.16,WNW,293,0.0,0.0,70,0.00,,,0.00,WUHU216HW,2013-05-09 03:32:00,
2013-05-08 23:37:00,49.2,40.2,30.15,West,270,0.0,0.0,71,0.00,,,0.00,WUHU216HW,2013-05-09 03:37:00,
2013-05-08 23:42:00,49.2,40.6,30.15,West,270,0.0,0.0,72,0.00,,,0.00,WUHU216HW,2013-05-09 03:42:00,
2013-05-08 23:47:00,49.2,40.9,30.16,West,270,0.0,0.0,73,0.00,,,0.00,WUHU216HW,2013-05-09 03:47:00,
2013-05-08 23:52:00,49.2,40.9,30.15,West,270,0.0,0.0,73,0.00,,,0.00,WUHU216HW,2013-05-09 03:52:00,
2013-05-08 23:57:00,49.6,40.9,30.15,West,270,0.0,0.0,72,0.00,,,0.00,WUHU216HW,2013-05-09 03:57:00,